Report METAR

 

LIBV - Gioia Del Colle, Italy
Distance from station: SSE 15km
Dati ricevuti: 27/02/2021 19:55
Sereno
Sereno
 Vento da NNO
Vento: NNO 17 km/h
Temperatura: 10°C
Temperatura Vento: 8°C
P.to Rugiada: 6°C
Umidità: 76%
Pressione: 1020 hPa
Riassunto: Sereno
Visibility: superiore a 10 km
2021/02/27 18:55 LIBV 271855Z 34009KT CAVOK 10/06 Q1020 RMK SKC VIS MIN 9999 WIND THR32 36010KT WIND THR14 36013KT BLU
LIBD - Bari/Palese Macc, Italy
Distance from station: NNO 26km
Dati ricevuti: 27/02/2021 19:50
Parz. nuvoloso
Parz. nuvoloso
 Vento da SO
Vento: SO 9 km/h
Temperatura: 8°C
Temperatura Vento: 6°C
P.to Rugiada: 6°C
Umidità: 87%
Pressione: 1022 hPa
Nuvole: Parz. nuvoloso
Visibility: 7 km
2021/02/27 18:50 LIBD 271850Z 23005KT 7000 NSC 08/06 Q1022
LIBH - Marina Di Ginosa, Italy
Distance from station: S 53km
Dati ricevuti: 27/02/2021 19:55
Sereno
Sereno
 Vento da O
Vento: O 11 km/h
Temperatura: 10°C
Temperatura Vento: 8°C
P.to Rugiada: 6°C
Umidità: 76%
Pressione: 1018 hPa
Riassunto: Sereno
Visibility: superiore a 10 km
2021/02/27 18:55 LIBH 271855Z 27006KT CAVOK 10/06 Q1018 RMK SKC QUK / QUL / VIS MAR 15 KM VIS MIN 9999
 
LIBG - Grottaglie(Civ/A, Italy
Distance from station: SE 61km
Dati ricevuti: 27/02/2021 19:50
Sereno
Sereno
 Vento da Variabile
Vento: Variabile 4 km/h
Temperatura: 9°C
P.to Rugiada: 4°C
Umidità: 71%
Pressione: 1021 hPa
Riassunto: Sereno
Visibility: superiore a 10 km
2021/02/27 18:50 LIBG 271850Z VRB02KT CAVOK 09/04 Q1021
LIBR - Brindisi/Casale, Italy
Distance from station: ESE 96km
Dati ricevuti: 27/02/2021 19:50
Prev. Nuvoloso
Prev. Nuvoloso
 Vento da NNO
Vento: NNO 19 km/h
Temperatura: 13°C
P.to Rugiada: 12°C
Umidità: 94%
Pressione: 1021 hPa
Nuvole: Prev. Nuvoloso
Visibility: 6 km
Cloud details: Prev. Nuvoloso 305 m
2021/02/27 18:50 LIBR 271850Z 33010KT 6000 BKN010 13/12 Q1021
LIBA - Amendola (it-Afb, Italy
Distance from station: NO 118km
Dati ricevuti: 27/02/2021 19:55
Parz. nuvoloso
Parz. nuvoloso
 Vento da ONO
Vento: ONO 26 km/h
Temperatura: 11°C
P.to Rugiada: 10°C
Umidità: 94%
Pressione: 1022 hPa
Nuvole: Parz. nuvoloso
Visibility: 7 km
2021/02/27 18:55 LIBA 271855Z 30014KT 7000 NSC 11/10 Q1022 RMK SKC VIS MIN 7000 WIND THR11 30012KT WIND THR29 /////KT WHT
 
LIBF - Foggia/Gino Lisa, Italy
Distance from station: ONO 126km
Dati ricevuti: 27/02/2021 15:50
DATI Obsoleti
Sereno
Sereno
 Vento da NNO
Vento: NNO 30 km/h
Temperatura: 17°C
P.to Rugiada: 7°C
Umidità: 52%
Pressione: 1021 hPa
Riassunto: Sereno
Visibility: superiore a 10 km
2021/02/27 14:50 LIBF 271450Z 33016KT CAVOK 17/07 Q1021
LIBN - Lecce (it-Afb), Italy
Distance from station: SE 132km
Dati ricevuti: 27/02/2021 19:55
Parz. nuvoloso
Parz. nuvoloso
 Vento da ONO
Vento: ONO 6 km/h
Temperatura: 11°C
P.to Rugiada: 11°C
Umidità: 100%
Pressione: 1021 hPa
Nuvole: Parz. nuvoloso
Visibility: 7 km
Cloud details: Parz. nuvoloso 305 m
2021/02/27 18:55 LIBN 271855Z 30003KT 7000 SCT010 11/11 Q1021 RMK SCT VIS MIN 7000 WIND THR14 33002KT WIND THR32 33002KT WHT